Time;durP1;ratioP1;P1;durP2;ratioP2;P2;SDS_P1;SDS_P2;PMS_P1;PMS_P2;Temp;Humidity;BMP_temperature;BMP_pressure;BME280_temperature;BME280_humidity;BME280_pressure;Samples;Min_cycle;Max_cycle;Signal;HPM_P1;HPM_P2
2021/06/04 00:02:46;;;;;;;8.00;3.40;;;;;;;15.07;100.00;95363.44;10400708;28;20167;-76
2021/06/04 00:07:47;;;;;;;6.10;3.70;;;;;;;15.04;100.00;95367.53;10400226;28;20550;-76
2021/06/04 00:12:47;;;;;;;7.20;3.87;;;;;;;15.00;100.00;95364.59;10400370;28;20408;-76
2021/06/04 00:17:47;;;;;;;5.03;4.20;;;;;;;14.95;100.00;95356.50;10400107;28;20138;-76
2021/06/04 00:22:48;;;;;;;5.07;4.00;;;;;;;15.03;100.00;95357.81;10398599;28;20026;-77
2021/06/04 00:27:48;;;;;;;6.73;4.10;;;;;;;15.12;100.00;95356.06;10400790;28;20042;-77
2021/06/04 00:32:49;;;;;;;8.65;4.38;;;;;;;15.11;100.00;95351.78;10401047;28;20022;-76
2021/06/04 00:37:49;;;;;;;5.97;4.55;;;;;;;15.13;100.00;95351.47;10401277;28;20025;-77
2021/06/04 00:42:51;;;;;;;8.13;4.35;;;;;;;15.10;100.00;95352.03;10399922;28;20021;-77
2021/06/04 00:47:51;;;;;;;7.15;4.30;;;;;;;15.10;100.00;95350.16;10399871;28;20049;-77
2021/06/04 00:52:52;;;;;;;6.68;4.20;;;;;;;15.04;100.00;95351.28;10399074;28;20033;-77
2021/06/04 00:57:54;;;;;;;6.90;4.07;;;;;;;15.05;100.00;95352.91;10397870;28;20504;-77
2021/06/04 01:02:56;;;;;;;11.30;4.60;;;;;;;15.05;100.00;95352.91;10416261;28;20284;-77
2021/06/04 01:08:15;;;;;;;8.57;5.47;;;;;;;15.07;100.00;95350.72;10408233;28;20044;-77
2021/06/04 01:13:30;;;;;;;6.38;4.20;;;;;;;15.09;100.00;95347.72;10408207;28;20445;-78
2021/06/04 01:18:48;;;;;;;7.70;4.45;;;;;;;15.06;100.00;95359.94;10407206;28;20026;-77
2021/06/04 01:24:08;;;;;;;;;;;;;;;15.01;100.00;95359.97;10407726;28;20118;-78
2021/06/04 01:29:14;;;;;;;6.18;4.97;;;;;;;15.00;100.00;95363.78;10405088;28;20352;-78
2021/06/04 01:34:30;;;;;;;8.77;4.47;;;;;;;15.00;100.00;95364.59;10408266;28;20394;-77
2021/06/04 01:39:41;;;;;;;6.97;4.65;;;;;;;14.96;100.00;95357.31;10406474;28;20467;-77
2021/06/04 01:44:51;;;;;;;8.35;4.10;;;;;;;15.03;100.00;95361.31;10405214;28;20029;-77
2021/06/04 01:49:53;;;;;;;6.55;4.25;;;;;;;14.96;100.00;95371.66;10406192;28;20061;-77
2021/06/04 01:54:59;;;;;;;7.55;4.43;;;;;;;14.81;100.00;95361.00;10404844;28;20032;-77
2021/06/04 02:00:00;;;;;;;7.88;4.93;;;;;;;14.73;100.00;95359.69;10404160;28;20053;-77
2021/06/04 02:05:05;;;;;;;6.60;3.88;;;;;;;14.63;100.00;95357.88;10405186;28;20393;-77
2021/06/04 02:10:12;;;;;;;9.02;4.75;;;;;;;14.73;100.00;95367.00;10405422;28;20025;-77
2021/06/04 02:15:20;;;;;;;10.73;4.47;;;;;;;14.75;100.00;95362.09;10401738;28;20032;-77
2021/06/04 02:20:30;;;;;;;8.57;4.90;;;;;;;14.68;100.00;95367.88;10403157;28;20508;-77
2021/06/04 02:25:39;;;;;;;7.55;4.60;;;;;;;14.72;100.00;95366.22;10404276;28;20046;-76
2021/06/04 02:30:48;;;;;;;10.45;5.05;;;;;;;14.48;100.00;95380.44;10404682;28;20061;-77
2021/06/04 02:35:55;;;;;;;8.70;4.97;;;;;;;14.47;100.00;95376.09;10404598;28;20130;-77
2021/06/04 02:41:05;;;;;;;7.32;4.70;;;;;;;14.39;100.00;95384.03;10404672;28;20059;-76
2021/06/04 02:46:15;;;;;;;8.05;4.47;;;;;;;14.40;100.00;95383.75;10402918;28;20503;-77
2021/06/04 02:51:30;;;;;;;5.45;4.75;;;;;;;14.12;100.00;95383.38;10403069;28;20033;-77
2021/06/04 02:56:36;;;;;;;8.75;5.00;;;;;;;13.97;100.00;95381.56;10404384;28;20598;-77
2021/06/04 03:01:40;;;;;;;6.22;5.32;;;;;;;14.07;100.00;95385.28;10403952;28;20029;-77
2021/06/04 03:06:45;;;;;;;6.07;4.70;;;;;;;14.06;100.00;95400.69;10403244;28;20033;-77
2021/06/04 03:11:46;;;;;;;6.15;5.07;;;;;;;13.93;100.00;95396.72;10402992;28;20100;-77
2021/06/04 03:16:49;;;;;;;8.35;5.65;;;;;;;13.96;100.00;95396.16;10402974;28;20033;-77
2021/06/04 03:21:52;;;;;;;7.55;5.18;;;;;;;13.88;100.00;95407.53;10403447;28;20449;-77
2021/06/04 03:26:53;;;;;;;7.55;4.07;;;;;;;13.94;100.00;95405.59;10402747;28;20049;-76
2021/06/04 03:31:59;;;;;;;7.35;5.35;;;;;;;13.71;100.00;95421.38;10399908;28;20033;-76
2021/06/04 03:37:00;;;;;;;7.80;5.88;;;;;;;13.32;100.00;95413.91;10401152;28;20030;-76
2021/06/04 03:42:02;;;;;;;8.77;4.97;;;;;;;13.21;100.00;95412.31;10401731;28;20043;-76
2021/06/04 03:47:05;;;;;;;7.57;6.03;;;;;;;13.35;100.00;95418.78;10407872;28;20025;-72
2021/06/04 03:52:08;;;;;;;15.18;5.57;;;;;;;13.48;100.00;95412.81;10418081;28;20029;-73
2021/06/04 03:57:11;;;;;;;9.52;6.30;;;;;;;13.68;100.00;95411.13;10442788;28;20459;-73
2021/06/04 04:02:16;;;;;;;9.23;5.88;;;;;;;13.90;100.00;95412.66;10441696;28;20035;-73
2021/06/04 04:07:16;;;;;;;8.35;5.20;;;;;;;13.89;100.00;95416.47;10442968;28;20796;-73
2021/06/04 04:12:17;;;;;;;12.00;6.70;;;;;;;14.08;100.00;95428.25;10441853;28;20024;-73
2021/06/04 04:17:18;;;;;;;10.05;6.40;;;;;;;14.30;100.00;95427.03;10441702;28;20496;-73
2021/06/04 04:22:19;;;;;;;12.48;6.60;;;;;;;14.41;100.00;95427.81;10441782;28;20036;-73
2021/06/04 04:27:19;;;;;;;9.50;6.27;;;;;;;14.56;100.00;95425.00;10404828;28;20037;-73
2021/06/04 04:32:19;;;;;;;9.07;5.83;;;;;;;14.68;100.00;95435.50;10425506;28;20141;-72
2021/06/04 04:37:21;;;;;;;12.05;6.13;;;;;;;14.86;100.00;95442.94;10427368;28;20275;-72
2021/06/04 04:42:22;;;;;;;11.82;6.47;;;;;;;14.91;100.00;95446.69;10453182;28;20029;-73
2021/06/04 04:47:24;;;;;;;11.73;6.07;;;;;;;15.02;100.00;95440.09;10455397;28;20044;-73
2021/06/04 04:52:24;;;;;;;12.93;6.28;;;;;;;14.95;100.00;95456.66;10454855;28;20052;-73
2021/06/04 04:57:28;;;;;;;8.20;5.38;;;;;;;15.06;100.00;95457.41;10454553;28;20379;-73
2021/06/04 05:02:28;;;;;;;8.35;6.07;;;;;;;14.99;100.00;95467.75;10452865;28;20024;-73
2021/06/04 05:07:29;;;;;;;9.53;5.33;;;;;;;15.07;100.00;95472.56;10452995;28;20031;-74
2021/06/04 05:12:29;;;;;;;12.45;5.40;;;;;;;14.94;100.00;95475.91;10453632;28;20267;-73
2021/06/04 05:17:29;;;;;;;13.20;7.00;;;;;;;15.19;100.00;95469.47;10452398;28;20029;-74
2021/06/04 05:22:30;;;;;;;11.50;4.77;;;;;;;15.42;100.00;95475.22;10453845;28;20090;-74
2021/06/04 05:27:30;;;;;;;8.55;5.40;;;;;;;15.41;100.00;95471.69;10453772;28;20045;-73
2021/06/04 05:32:31;;;;;;;9.00;5.83;;;;;;;15.51;100.00;95473.50;10454002;28;20028;-73
2021/06/04 05:37:32;;;;;;;15.13;5.60;;;;;;;15.63;100.00;95479.34;10453732;28;20750;-73
2021/06/04 05:42:32;;;;;;;16.30;6.13;;;;;;;15.83;100.00;95481.06;10452944;28;20370;-73
2021/06/04 05:47:33;;;;;;;19.48;6.65;;;;;;;15.99;100.00;95484.41;10454230;28;20031;-73
2021/06/04 05:52:34;;;;;;;12.70;6.70;;;;;;;16.21;100.00;95493.91;10445690;28;20386;-73
2021/06/04 05:57:35;;;;;;;12.60;6.95;;;;;;;16.51;100.00;95481.06;10447223;28;20037;-73
2021/06/04 06:02:35;;;;;;;11.30;7.93;;;;;;;16.82;100.00;95483.31;10446472;28;20651;-73
2021/06/04 06:07:36;;;;;;;14.47;7.60;;;;;;;17.04;100.00;95488.19;10446551;28;20024;-74
2021/06/04 06:12:36;;;;;;;18.63;8.15;;;;;;;17.37;100.00;95496.34;10446076;28;20064;-73
2021/06/04 06:17:37;;;;;;;24.83;7.90;;;;;;;17.67;100.00;95489.56;10446362;28;20036;-73
2021/06/04 06:22:38;;;;;;;20.60;7.18;;;;;;;17.84;100.00;95493.63;10445493;28;20136;-73
2021/06/04 06:27:39;;;;;;;15.73;6.25;;;;;;;18.21;94.69;95494.53;10446173;28;20053;-74
2021/06/04 06:32:39;;;;;;;19.50;6.63;;;;;;;19.07;98.56;95496.50;10445869;28;20044;-74
2021/06/04 06:37:40;;;;;;;20.80;6.77;;;;;;;19.97;87.54;95484.75;10445025;28;20056;-74
2021/06/04 06:42:40;;;;;;;11.13;7.00;;;;;;;20.88;80.29;95478.88;10445543;28;20960;-74
2021/06/04 06:47:41;;;;;;;14.80;7.10;;;;;;;20.82;80.40;95486.44;10445096;28;20025;-74
2021/06/04 06:52:41;;;;;;;15.43;6.97;;;;;;;20.54;78.45;95488.63;10443425;28;20024;-73
2021/06/04 06:57:42;;;;;;;20.80;6.20;;;;;;;21.22;68.02;95485.44;10443995;28;20279;-73
2021/06/04 07:02:42;;;;;;;16.58;6.80;;;;;;;22.13;65.19;95482.69;10443680;28;20283;-73
2021/06/04 07:07:43;;;;;;;14.27;4.88;;;;;;;24.08;51.55;95476.16;10444070;28;20094;-74
2021/06/04 07:12:44;;;;;;;19.02;5.38;;;;;;;25.04;47.93;95474.84;10443868;28;20039;-74
2021/06/04 07:17:45;;;;;;;19.63;5.47;;;;;;;25.92;45.99;95465.06;10443747;28;20033;-74
2021/06/04 07:22:46;;;;;;;27.10;5.25;;;;;;;26.06;43.71;95472.91;10441733;28;20029;-74
2021/06/04 07:27:48;;;;;;;16.38;5.95;;;;;;;26.41;40.37;95472.97;10443772;28;20630;-74
2021/06/04 07:32:49;;;;;;;14.57;5.60;;;;;;;26.13;41.32;95475.84;10443159;28;20615;-74
2021/06/04 07:37:50;;;;;;;11.60;4.95;;;;;;;26.08;42.74;95474.16;10442052;28;20081;-74
2021/06/04 07:42:51;;;;;;;12.45;6.18;;;;;;;25.12;43.42;95475.84;10442701;28;20115;-74
2021/06/04 07:47:51;;;;;;;16.40;5.60;;;;;;;24.96;41.97;95480.47;10442051;28;20027;-74
2021/06/04 07:52:52;;;;;;;12.57;4.33;;;;;;;26.12;40.09;95465.97;10441556;28;20021;-74
2021/06/04 07:57:53;;;;;;;16.23;4.43;;;;;;;27.93;37.22;95454.84;10440631;28;20029;-74
2021/06/04 08:02:55;;;;;;;13.90;3.92;;;;;;;30.26;35.56;95454.78;10441139;28;20736;-74
2021/06/04 08:07:55;;;;;;;12.23;3.55;;;;;;;31.08;32.20;95464.91;10442461;28;20036;-74
2021/06/04 08:12:57;;;;;;;12.13;3.30;;;;;;;29.53;33.49;95480.16;10442389;28;20468;-74
2021/06/04 08:17:58;;;;;;;2.90;2.40;;;;;;;27.24;36.01;95476.81;10442344;28;20544;-74
2021/06/04 08:23:01;;;;;;;7.53;3.40;;;;;;;26.50;38.29;95481.06;10442346;28;20096;-74
2021/06/04 08:28:03;;;;;;;8.15;3.45;;;;;;;25.44;39.53;95483.44;10442700;28;20048;-74
2021/06/04 08:33:04;;;;;;;6.05;3.30;;;;;;;24.95;40.99;95484.38;10442088;28;20020;-74
2021/06/04 08:38:05;;;;;;;6.22;3.13;;;;;;;24.28;42.85;95476.41;10442371;28;20480;-74
2021/06/04 08:43:24;;;;;;;3.22;2.65;;;;;;;24.51;40.98;95474.00;10442531;28;20040;-72
2021/06/04 08:48:32;;;;;;;6.57;2.97;;;;;;;24.44;40.99;95484.75;10442906;28;20383;-72
2021/06/04 08:53:44;;;;;;;10.25;3.25;;;;;;;24.30;41.96;95477.66;10441636;28;20025;-73
2021/06/04 08:58:48;;;;;;;3.53;2.53;;;;;;;24.10;41.15;95482.13;10441722;28;20032;-73
2021/06/04 09:04:01;;;;;;;6.78;2.28;;;;;;;24.20;41.17;95480.88;10441820;28;20036;-73
2021/06/04 09:09:21;;;;;;;3.22;2.25;;;;;;;24.45;40.39;95475.34;10441909;28;20060;-72
2021/06/04 09:14:22;;;;;;;5.57;3.03;;;;;;;24.49;41.03;95479.00;10441714;28;20029;-73
2021/06/04 09:19:28;;;;;;;2.45;1.70;;;;;;;24.52;39.41;95483.84;10440844;28;20160;-73
2021/06/04 09:24:34;;;;;;;5.05;1.75;;;;;;;24.84;37.12;95475.78;10444214;28;20132;-73
2021/06/04 09:29:34;;;;;;;9.40;2.47;;;;;;;25.39;35.87;95468.78;10449059;28;20454;-73
2021/06/04 09:34:34;;;;;;;4.13;2.20;;;;;;;24.46;37.21;95471.47;10449253;28;20029;-73
2021/06/04 09:39:43;;;;;;;3.37;2.10;;;;;;;24.12;36.80;95468.03;10448600;28;20052;-72
2021/06/04 09:44:58;;;;;;;4.85;2.47;;;;;;;25.31;33.60;95461.44;10446936;28;20013;-72
2021/06/04 09:50:13;;;;;;;2.60;1.67;;;;;;;26.12;34.93;95446.69;10448362;28;20029;-72
2021/06/04 09:55:17;;;;;;;10.57;4.15;;;;;;;27.60;34.44;95442.44;10447038;28;20079;-73
2021/06/04 10:00:24;;;;;;;5.60;2.03;;;;;;;27.99;33.60;95441.56;10447896;28;20037;-73
2021/06/04 10:05:29;;;;;;;2.55;1.90;;;;;;;27.45;33.83;95435.84;10447588;28;20025;-73
2021/06/04 10:10:34;;;;;;;4.80;2.53;;;;;;;25.65;36.05;95436.41;10447250;28;20037;-73
2021/06/04 10:15:35;;;;;;;2.28;1.85;;;;;;;25.20;35.03;95432.81;10447454;28;20271;-73
2021/06/04 10:20:48;;;;;;;5.15;2.47;;;;;;;25.30;37.21;95435.09;10447262;28;20925;-73
2021/06/04 10:26:01;;;;;;;5.93;2.30;;;;;;;25.19;37.31;95432.03;10446937;28;20045;-73
2021/06/04 10:31:06;;;;;;;6.43;3.05;;;;;;;25.00;37.57;95442.88;10449393;28;20029;-74
2021/06/04 10:36:14;;;;;;;8.35;2.70;;;;;;;25.40;36.24;95442.06;10446291;28;20063;-74
2021/06/04 10:41:16;;;;;;;;;;;;;;;26.46;33.73;95433.31;10447109;28;20020;-73
2021/06/04 10:47:00;;;;;;;2.70;2.10;;;;;;;25.36;35.25;95436.47;10446321;28;19955;-73
2021/06/04 10:52:13;;;;;;;8.00;2.63;;;;;;;26.12;35.68;95430.16;10445153;28;20026;-73
2021/06/04 10:57:13;;;;;;;6.63;2.33;;;;;;;26.32;38.14;95425.53;10444863;28;20461;-74
2021/06/04 11:02:35;;;;;;;4.93;2.15;;;;;;;25.67;37.73;95426.66;10445752;28;20029;-74
2021/06/04 11:07:50;;;;;;;5.85;2.72;;;;;;;24.91;38.59;95430.06;10445494;28;20093;-74
2021/06/04 11:13:32;;;;;;;11.27;2.63;;;;;;;24.10;37.11;95427.19;10445189;28;20487;-73
2021/06/04 11:18:35;;;;;;;9.48;3.35;;;;;;;23.75;38.05;95427.59;10419077;28;20072;-73
2021/06/04 11:23:50;;;;;;;12.07;3.13;;;;;;;23.61;39.17;95416.94;10445202;28;20148;-73
2021/06/04 11:28:56;;;;;;;5.25;2.75;;;;;;;23.81;39.70;95406.22;10444459;28;20543;-73
2021/06/04 11:34:01;;;;;;;11.52;2.92;;;;;;;23.75;41.63;95404.81;10444522;28;20517;-73
2021/06/04 11:39:09;;;;;;;5.80;3.30;;;;;;;24.45;40.64;95401.16;10444022;28;20025;-74
2021/06/04 11:44:24;;;;;;;4.82;2.30;;;;;;;25.15;38.29;95391.84;10444138;28;20484;-74
2021/06/04 11:49:25;;;;;;;9.32;2.58;;;;;;;25.15;38.07;95378.09;10443551;28;20102;-74
2021/06/04 11:54:38;;;;;;;8.33;3.03;;;;;;;24.70;37.53;95382.72;10444146;28;20014;-74
2021/06/04 11:59:51;;;;;;;6.40;2.90;;;;;;;24.62;39.22;95384.47;10443704;28;20029;-74
2021/06/04 12:05:17;;;;;;;5.85;3.17;;;;;;;24.64;38.27;95384.09;10444209;28;20109;-74
2021/06/04 12:10:46;;;;;;;4.47;2.97;;;;;;;24.37;40.45;95381.72;10440521;28;20044;-73
2021/06/04 12:15:49;;;;;;;4.93;2.85;;;;;;;24.31;41.84;95380.38;10441339;28;20048;-74
2021/06/04 12:20:49;;;;;;;7.82;2.80;;;;;;;23.93;40.64;95372.50;10440037;28;20021;-73
2021/06/04 12:25:49;;;;;;;9.00;2.80;;;;;;;23.78;40.91;95374.75;10439951;28;20053;-73
2021/06/04 12:30:50;;;;;;;7.15;3.30;;;;;;;23.14;40.51;95374.19;10440440;28;20397;-73
2021/06/04 12:35:50;;;;;;;4.37;2.53;;;;;;;23.13;39.35;95369.84;10440959;28;20078;-74
2021/06/04 12:40:52;;;;;;;5.27;2.57;;;;;;;22.78;41.07;95361.91;10440528;28;20309;-74
2021/06/04 12:46:18;;;;;;;3.22;2.25;;;;;;;23.07;43.30;95370.38;10439927;28;20102;-74
2021/06/04 12:51:21;;;;;;;6.55;2.47;;;;;;;23.30;42.79;95374.34;10439878;28;20087;-73
2021/06/04 12:56:25;;;;;;;7.75;2.88;;;;;;;23.30;42.83;95368.84;10439930;28;20078;-74
2021/06/04 13:01:28;;;;;;;4.63;2.80;;;;;;;23.50;45.19;95361.69;10445657;28;20391;-74
2021/06/04 13:06:41;;;;;;;3.38;2.53;;;;;;;23.69;41.42;95363.09;10448468;28;20144;-74
2021/06/04 13:11:46;;;;;;;4.82;2.25;;;;;;;23.81;41.65;95363.09;10448271;28;20056;-74
2021/06/04 13:16:47;;;;;;;6.03;2.85;;;;;;;23.75;45.62;95361.72;10447956;28;20056;-74
2021/06/04 13:21:52;;;;;;;5.70;2.55;;;;;;;23.26;47.35;95373.44;10447468;28;20063;-74
2021/06/04 13:26:54;;;;;;;5.50;2.80;;;;;;;23.04;48.08;95369.91;10447273;28;20441;-74
2021/06/04 13:31:58;;;;;;;4.78;2.78;;;;;;;22.73;53.04;95377.75;10448802;28;20029;-74
2021/06/04 13:37:00;;;;;;;11.80;3.03;;;;;;;22.98;52.80;95373.19;10448733;28;20025;-73
2021/06/04 13:42:09;;;;;;;7.53;2.50;;;;;;;23.20;49.74;95386.53;10448612;28;20029;-74
2021/06/04 13:47:17;;;;;;;7.18;3.47;;;;;;;23.08;51.70;95377.44;10448859;28;20037;-74
2021/06/04 13:52:22;;;;;;;2.73;2.03;;;;;;;23.08;53.00;95385.66;10448721;28;20464;-74
2021/06/04 13:57:27;;;;;;;5.32;2.42;;;;;;;22.99;47.69;95380.28;10447759;28;20021;-74
2021/06/04 14:02:31;;;;;;;3.67;2.72;;;;;;;22.97;51.62;95382.53;10452303;28;20025;-74
2021/06/04 14:07:40;;;;;;;5.25;2.65;;;;;;;22.77;49.43;95378.69;10421617;28;20033;-74
2021/06/04 14:12:43;;;;;;;9.90;3.25;;;;;;;22.68;53.11;95382.31;10408639;28;20064;-74
2021/06/04 14:17:44;;;;;;;6.93;2.63;;;;;;;22.41;52.46;95377.38;10422801;28;20059;-74
2021/06/04 14:22:47;;;;;;;5.83;2.40;;;;;;;22.32;56.41;95380.13;10421991;28;20389;-74
2021/06/04 14:27:58;;;;;;;7.05;2.80;;;;;;;22.35;54.21;95377.59;10427050;28;20084;-74
2021/06/04 14:33:14;;;;;;;4.30;3.13;;;;;;;22.38;55.35;95378.81;10413458;28;20448;-74
2021/06/04 14:38:37;;;;;;;6.97;3.38;;;;;;;22.28;55.50;95373.72;10404678;28;20036;-74
2021/06/04 14:43:40;;;;;;;3.67;2.33;;;;;;;22.34;60.23;95373.22;10404962;28;20021;-74
2021/06/04 14:48:41;;;;;;;7.63;3.00;;;;;;;22.40;55.27;95378.53;10410410;28;20128;-74
2021/06/04 14:53:41;;;;;;;9.57;2.93;;;;;;;22.00;56.33;95377.75;10407839;28;20029;-73
2021/06/04 14:58:42;;;;;;;5.35;2.65;;;;;;;21.60;57.36;95375.38;10414651;28;20287;-73
2021/06/04 15:03:43;;;;;;;7.15;3.95;;;;;;;21.49;60.77;95371.38;10408323;28;20076;-74
2021/06/04 15:08:44;;;;;;;7.03;3.70;;;;;;;21.33;61.76;95365.63;10401330;28;20512;-74
2021/06/04 15:13:45;;;;;;;7.65;3.60;;;;;;;21.31;55.48;95356.97;10402149;28;20361;-74
2021/06/04 15:18:46;;;;;;;3.45;2.67;;;;;;;21.48;55.37;95358.81;10402910;28;20561;-74
2021/06/04 15:23:47;;;;;;;3.88;2.72;;;;;;;21.73;56.31;95359.09;10402865;28;20394;-73
2021/06/04 15:28:48;;;;;;;7.60;2.70;;;;;;;21.70;57.75;95360.53;10402539;28;20049;-74
2021/06/04 15:33:50;;;;;;;5.45;3.25;;;;;;;21.73;57.67;95357.13;10401999;28;20112;-73
2021/06/04 15:38:54;;;;;;;3.25;2.47;;;;;;;21.73;57.10;95348.94;10402201;28;20082;-73
2021/06/04 15:43:55;;;;;;;3.15;2.58;;;;;;;21.65;54.45;95350.56;10401836;28;20029;-73
2021/06/04 15:48:56;;;;;;;4.43;3.10;;;;;;;21.66;51.46;95345.91;10401695;28;20116;-73
2021/06/04 15:53:58;;;;;;;3.53;2.37;;;;;;;21.56;48.36;95351.72;10402839;28;20021;-73
2021/06/04 15:59:00;;;;;;;3.08;2.42;;;;;;;21.45;50.94;95343.06;10402301;28;20817;-73
2021/06/04 16:04:01;;;;;;;3.03;2.40;;;;;;;21.51;51.30;95348.03;10402051;28;20017;-73
2021/06/04 16:09:05;;;;;;;2.85;2.40;;;;;;;21.46;52.08;95344.66;10402394;28;20029;-73
2021/06/04 16:14:06;;;;;;;5.35;3.03;;;;;;;21.44;52.15;95345.00;10401692;28;20021;-73
2021/06/04 16:19:07;;;;;;;3.78;2.65;;;;;;;21.30;52.16;95344.41;10401856;28;20370;-73
2021/06/04 16:24:08;;;;;;;5.63;2.30;;;;;;;21.28;53.20;95338.44;10402231;28;20030;-73
2021/06/04 16:29:08;;;;;;;4.47;2.40;;;;;;;21.16;53.47;95348.13;10401053;28;20053;-73
2021/06/04 16:34:10;;;;;;;2.63;2.10;;;;;;;21.00;52.52;95349.78;10399371;28;20495;-73
2021/06/04 16:39:11;;;;;;;7.57;2.22;;;;;;;20.78;54.12;95351.59;10399766;28;20025;-73
2021/06/04 16:44:12;;;;;;;4.40;2.80;;;;;;;20.55;62.43;95352.88;10401573;28;20065;-73
2021/06/04 16:49:13;;;;;;;5.85;3.05;;;;;;;20.34;61.86;95360.91;10401214;28;20033;-73
2021/06/04 16:54:13;;;;;;;5.10;2.53;;;;;;;20.11;65.35;95361.03;10408233;28;20029;-73
2021/06/04 16:59:14;;;;;;;5.13;3.23;;;;;;;20.05;67.96;95365.84;10426453;28;20033;-73
2021/06/04 17:04:14;;;;;;;4.13;2.85;;;;;;;20.02;72.04;95365.66;10423756;28;20029;-73
2021/06/04 17:09:16;;;;;;;5.93;3.55;;;;;;;19.93;75.89;95362.94;10422409;28;20027;-73
2021/06/04 17:14:16;;;;;;;4.63;3.33;;;;;;;19.90;80.18;95369.00;10438108;28;20059;-73
2021/06/04 17:19:17;;;;;;;8.48;3.38;;;;;;;19.90;75.98;95369.81;10438098;28;20048;-73
2021/06/04 17:24:18;;;;;;;4.07;2.58;;;;;;;19.78;75.83;95375.84;10431676;28;20025;-73
2021/06/04 17:29:19;;;;;;;5.38;3.30;;;;;;;19.69;76.58;95383.22;10428111;28;20045;-74
2021/06/04 17:34:21;;;;;;;4.32;3.05;;;;;;;19.61;81.67;95376.59;10437423;28;20012;-74
2021/06/04 17:39:22;;;;;;;4.53;2.33;;;;;;;19.49;85.96;95376.38;10438138;28;20074;-74
2021/06/04 17:44:23;;;;;;;12.13;3.22;;;;;;;19.35;85.77;95389.31;10434865;28;20053;-75
2021/06/04 17:49:23;;;;;;;5.65;3.13;;;;;;;19.23;89.21;95385.25;10440878;28;20087;-75
2021/06/04 17:54:24;;;;;;;5.90;3.70;;;;;;;19.16;92.04;95384.06;10436546;28;20059;-75
2021/06/04 17:59:24;;;;;;;10.85;3.80;;;;;;;19.00;91.88;95389.91;10443307;28;20028;-75
2021/06/04 18:04:25;;;;;;;6.27;3.33;;;;;;;18.89;94.42;95399.44;10407223;28;20029;-75
2021/06/04 18:09:25;;;;;;;16.50;3.47;;;;;;;18.70;94.25;95400.41;10424303;28;20689;-78
2021/06/04 18:14:27;;;;;;;4.38;3.22;;;;;;;18.62;97.54;95407.38;10448093;28;20495;-75
2021/06/04 18:19:28;;;;;;;8.43;3.97;;;;;;;18.48;100.00;95408.56;10424323;28;20032;-76
2021/06/04 18:24:28;;;;;;;5.55;4.32;;;;;;;18.34;100.00;95417.53;10414025;28;20488;-76
2021/06/04 18:29:28;;;;;;;7.23;3.33;;;;;;;18.26;100.00;95418.25;10446593;28;20037;-75
2021/06/04 18:34:29;;;;;;;9.75;4.50;;;;;;;18.20;100.00;95424.94;10444719;28;20021;-75
2021/06/04 18:39:30;;;;;;;6.57;3.35;;;;;;;18.03;100.00;95433.69;10445830;28;20028;-75
2021/06/04 18:44:30;;;;;;;7.57;3.28;;;;;;;17.81;100.00;95440.63;10440455;28;20029;-76
2021/06/04 18:49:31;;;;;;;9.02;3.50;;;;;;;17.52;100.00;95439.00;10408271;28;20029;-75
2021/06/04 18:54:32;;;;;;;7.78;3.47;;;;;;;17.44;100.00;95445.13;10437209;28;20083;-76
2021/06/04 18:59:34;;;;;;;8.10;4.13;;;;;;;17.40;100.00;95453.06;10419826;28;20795;-76
2021/06/04 19:04:36;;;;;;;7.50;4.50;;;;;;;17.24;100.00;95438.16;10425423;28;20017;-76
2021/06/04 19:09:37;;;;;;;6.95;3.80;;;;;;;17.28;100.00;95458.19;10403700;28;20037;-76
2021/06/04 19:14:38;;;;;;;5.57;4.07;;;;;;;17.18;100.00;95442.06;10403322;28;20539;-76
2021/06/04 19:19:39;;;;;;;11.52;4.95;;;;;;;17.05;100.00;95459.91;10424127;28;20024;-75
2021/06/04 19:24:39;;;;;;;6.90;5.23;;;;;;;16.99;100.00;95453.75;10444047;28;20044;-75
2021/06/04 19:29:42;;;;;;;9.70;5.60;;;;;;;16.86;100.00;95473.50;10443224;28;20391;-76
2021/06/04 19:34:44;;;;;;;12.30;6.03;;;;;;;16.76;100.00;95471.75;10443494;28;20044;-76
2021/06/04 19:39:45;;;;;;;18.05;6.97;;;;;;;16.60;100.00;95478.50;10435731;28;20033;-76
2021/06/04 19:44:45;;;;;;;10.83;6.90;;;;;;;16.43;100.00;95482.50;10430169;28;20446;-75
2021/06/04 19:49:46;;;;;;;12.80;5.80;;;;;;;16.12;100.00;95491.03;10431080;28;20303;-75
2021/06/04 19:54:46;;;;;;;11.55;6.80;;;;;;;15.94;100.00;95478.25;10428210;28;20032;-76
2021/06/04 19:59:46;;;;;;;10.90;5.90;;;;;;;16.03;100.00;95490.88;10425317;28;20037;-76
2021/06/04 20:04:47;;;;;;;11.20;6.73;;;;;;;16.12;100.00;95491.03;10401112;28;20350;-76
2021/06/04 20:09:49;;;;;;;10.33;5.90;;;;;;;15.91;100.00;95485.03;10400727;28;20037;-76
2021/06/04 20:14:50;;;;;;;9.85;5.80;;;;;;;15.75;100.00;95500.63;10401446;28;20132;-76
2021/06/04 20:19:51;;;;;;;11.27;6.05;;;;;;;15.63;100.00;95492.91;10402063;28;20040;-76
2021/06/04 20:24:53;;;;;;;11.75;5.53;;;;;;;15.51;100.00;95493.25;10413696;28;20049;-76
2021/06/04 20:29:53;;;;;;;8.55;5.75;;;;;;;15.48;100.00;95493.84;10441353;28;20121;-76
2021/06/04 20:34:55;;;;;;;14.63;5.70;;;;;;;15.44;100.00;95484.66;10442161;28;20023;-76
2021/06/04 20:39:55;;;;;;;13.05;5.60;;;;;;;15.37;100.00;95481.50;10441467;28;20400;-76
2021/06/04 20:44:55;;;;;;;13.40;4.90;;;;;;;15.17;100.00;95475.16;10442175;28;20033;-76
2021/06/04 20:49:58;;;;;;;7.50;4.43;;;;;;;15.09;100.00;95478.47;10428267;28;20025;-75
2021/06/04 20:54:58;;;;;;;12.88;4.53;;;;;;;14.97;100.00;95469.91;10401035;28;20017;-75
2021/06/04 20:59:59;;;;;;;7.88;5.45;;;;;;;14.98;100.00;95463.41;10400446;28;20013;-75
2021/06/04 21:05:02;;;;;;;5.88;4.45;;;;;;;14.93;100.00;95471.56;10400246;28;20504;-75
2021/06/04 21:10:04;;;;;;;14.50;5.65;;;;;;;14.89;100.00;95473.22;10400101;28;20029;-76
2021/06/04 21:15:07;;;;;;;12.13;5.93;;;;;;;14.82;100.00;95470.84;10400562;28;20017;-76
2021/06/04 21:20:11;;;;;;;8.48;5.68;;;;;;;14.75;100.00;95464.94;10402964;28;20083;-76
2021/06/04 21:25:15;;;;;;;10.43;6.05;;;;;;;14.65;100.00;95463.94;10423508;28;20160;-76
2021/06/04 21:30:19;;;;;;;10.30;6.38;;;;;;;14.50;100.00;95462.09;10443987;28;20032;-75
2021/06/04 21:35:22;;;;;;;8.32;5.97;;;;;;;14.40;100.00;95459.47;10435522;28;20014;-76
2021/06/04 21:40:27;;;;;;;8.98;5.38;;;;;;;14.26;100.00;95456.56;10408164;28;20427;-75
2021/06/04 21:45:28;;;;;;;8.77;5.18;;;;;;;14.15;100.00;95463.91;10406726;28;20057;-75
2021/06/04 21:50:28;;;;;;;6.50;5.18;;;;;;;14.06;100.00;95462.84;10438949;28;20104;-75
2021/06/04 21:55:29;;;;;;;7.78;4.75;;;;;;;14.00;100.00;95459.38;10426814;28;20026;-75
2021/06/04 22:00:36;;;;;;;5.82;4.75;;;;;;;14.01;100.00;95458.28;10421765;28;20033;-75
2021/06/04 22:05:37;;;;;;;6.23;5.00;;;;;;;14.04;100.00;95459.63;10423592;28;20025;-76
2021/06/04 22:10:38;;;;;;;6.15;4.93;;;;;;;14.11;100.00;95453.94;10407329;28;20031;-76
2021/06/04 22:15:39;;;;;;;7.15;4.50;;;;;;;14.15;100.00;95461.19;10405957;28;20025;-76
2021/06/04 22:20:39;;;;;;;10.98;5.43;;;;;;;14.19;100.00;95450.63;10405800;28;20029;-76
2021/06/04 22:25:43;;;;;;;6.70;5.32;;;;;;;14.21;100.00;95461.19;10413592;28;20033;-83
2021/06/04 22:30:44;;;;;;;6.45;5.05;;;;;;;13.99;100.00;95467.75;10415289;28;20026;-83
2021/06/04 22:35:44;;;;;;;10.43;5.38;;;;;;;13.63;100.00;95463.28;10415912;28;20840;-85
2021/06/04 22:40:44;;;;;;;7.45;5.07;;;;;;;13.31;100.00;95472.50;10417440;28;20028;-84
2021/06/04 22:45:45;;;;;;;9.37;5.43;;;;;;;12.96;100.00;95459.81;10426062;28;20148;-84
2021/06/04 22:50:45;;;;;;;8.80;5.90;;;;;;;12.88;100.00;95457.66;10415639;28;20278;-84
2021/06/04 22:55:50;;;;;;;9.43;5.33;;;;;;;12.69;100.00;95452.00;10413680;28;20025;-84
2021/06/04 23:00:52;;;;;;;5.93;5.32;;;;;;;12.55;100.00;95443.63;10414956;28;20291;-84
2021/06/04 23:05:52;;;;;;;10.93;5.57;;;;;;;12.46;100.00;95444.16;10414711;28;20108;-84
2021/06/04 23:10:55;;;;;;;8.32;6.22;;;;;;;12.45;100.00;95439.84;10413363;28;20124;-84
2021/06/04 23:15:55;;;;;;;7.55;5.13;;;;;;;12.42;100.00;95428.78;10412909;28;20108;-84
2021/06/04 23:20:56;;;;;;;9.07;5.28;;;;;;;12.53;100.00;95429.59;10414267;28;20111;-84